sensor_id;sensor_type;location;lat;lon;timestamp;pressure;altitude;pressure_sealevel;temperature;humidity
21817;BME280;13247;47.504;7.382;2023-05-25T00:01:50;97504.28;;;11.55;100.00
21817;BME280;13247;47.504;7.382;2023-05-25T00:04:37;97507.03;;;11.78;100.00
21817;BME280;13247;47.504;7.382;2023-05-25T00:07:22;97501.69;;;12.08;96.98
21817;BME280;13247;47.504;7.382;2023-05-25T00:10:07;97503.59;;;12.03;100.00
21817;BME280;13247;47.504;7.382;2023-05-25T00:12:52;97493.97;;;12.02;100.00
21817;BME280;13247;47.504;7.382;2023-05-25T00:15:37;97498.34;;;12.03;100.00
21817;BME280;13247;47.504;7.382;2023-05-25T00:18:21;97491.09;;;12.09;100.00
21817;BME280;13247;47.504;7.382;2023-05-25T00:21:06;97488.56;;;12.06;100.00
21817;BME280;13247;47.504;7.382;2023-05-25T00:23:51;97492.81;;;11.86;100.00
21817;BME280;13247;47.504;7.382;2023-05-25T00:26:35;97483.47;;;12.02;100.00
21817;BME280;13247;47.504;7.382;2023-05-25T00:29:20;97484.81;;;11.89;100.00
21817;BME280;13247;47.504;7.382;2023-05-25T00:32:05;97480.41;;;11.89;100.00
21817;BME280;13247;47.504;7.382;2023-05-25T00:34:49;97479.34;;;11.95;100.00
21817;BME280;13247;47.504;7.382;2023-05-25T00:37:34;97472.66;;;12.11;100.00
21817;BME280;13247;47.504;7.382;2023-05-25T00:40:20;97478.56;;;11.93;100.00
21817;BME280;13247;47.504;7.382;2023-05-25T00:43:07;97475.88;;;11.94;100.00
21817;BME280;13247;47.504;7.382;2023-05-25T00:45:51;97474.78;;;12.00;100.00
21817;BME280;13247;47.504;7.382;2023-05-25T00:48:38;97467.91;;;11.96;100.00
21817;BME280;13247;47.504;7.382;2023-05-25T00:51:24;97464.81;;;11.85;100.00
21817;BME280;13247;47.504;7.382;2023-05-25T00:54:09;97465.78;;;11.82;100.00
21817;BME280;13247;47.504;7.382;2023-05-25T00:57:01;97464.69;;;11.88;100.00
21817;BME280;13247;47.504;7.382;2023-05-25T00:59:50;97458.56;;;11.87;100.00
21817;BME280;13247;47.504;7.382;2023-05-25T01:02:39;97460.16;;;11.93;100.00
21817;BME280;13247;47.504;7.382;2023-05-25T01:05:27;97459.34;;;11.91;100.00
21817;BME280;13247;47.504;7.382;2023-05-25T01:08:15;97454.50;;;11.78;100.00
21817;BME280;13247;47.504;7.382;2023-05-25T01:11:02;97446.81;;;11.74;100.00
21817;BME280;13247;47.504;7.382;2023-05-25T01:13:52;97442.50;;;11.71;100.00
21817;BME280;13247;47.504;7.382;2023-05-25T01:16:41;97443.78;;;12.09;100.00
21817;BME280;13247;47.504;7.382;2023-05-25T01:19:26;97453.94;;;11.95;100.00
21817;BME280;13247;47.504;7.382;2023-05-25T01:22:15;97453.69;;;11.76;100.00
21817;BME280;13247;47.504;7.382;2023-05-25T01:25:19;97454.34;;;11.57;100.00
21817;BME280;13247;47.504;7.382;2023-05-25T01:28:17;97456.31;;;11.50;100.00
21817;BME280;13247;47.504;7.382;2023-05-25T01:31:06;97451.06;;;11.50;100.00
21817;BME280;13247;47.504;7.382;2023-05-25T01:33:53;97445.88;;;11.49;100.00
21817;BME280;13247;47.504;7.382;2023-05-25T01:36:38;97448.16;;;11.58;100.00
21817;BME280;13247;47.504;7.382;2023-05-25T01:39:23;97452.47;;;11.60;100.00
21817;BME280;13247;47.504;7.382;2023-05-25T01:42:08;97455.88;;;11.38;100.00
21817;BME280;13247;47.504;7.382;2023-05-25T01:44:53;97453.69;;;11.50;100.00
21817;BME280;13247;47.504;7.382;2023-05-25T01:47:49;97455.59;;;11.45;100.00
21817;BME280;13247;47.504;7.382;2023-05-25T01:50:45;97456.00;;;11.33;100.00
21817;BME280;13247;47.504;7.382;2023-05-25T01:53:38;97453.28;;;11.62;100.00
21817;BME280;13247;47.504;7.382;2023-05-25T01:56:28;97450.59;;;11.64;100.00
21817;BME280;13247;47.504;7.382;2023-05-25T01:59:21;97455.78;;;11.67;100.00
21817;BME280;13247;47.504;7.382;2023-05-25T02:02:06;97460.69;;;11.77;100.00
21817;BME280;13247;47.504;7.382;2023-05-25T02:04:53;97452.91;;;11.99;100.00
21817;BME280;13247;47.504;7.382;2023-05-25T02:07:41;97452.28;;;11.93;100.00
21817;BME280;13247;47.504;7.382;2023-05-25T02:10:25;97450.75;;;11.86;100.00
21817;BME280;13247;47.504;7.382;2023-05-25T02:13:10;97451.94;;;12.02;100.00
21817;BME280;13247;47.504;7.382;2023-05-25T02:15:55;97446.66;;;12.03;100.00
21817;BME280;13247;47.504;7.382;2023-05-25T02:18:39;97441.41;;;12.02;100.00
21817;BME280;13247;47.504;7.382;2023-05-25T02:21:24;97441.16;;;12.09;100.00
21817;BME280;13247;47.504;7.382;2023-05-25T02:24:08;97443.50;;;12.17;100.00
21817;BME280;13247;47.504;7.382;2023-05-25T02:26:54;97434.81;;;12.15;100.00
21817;BME280;13247;47.504;7.382;2023-05-25T02:29:39;97424.69;;;12.29;100.00
21817;BME280;13247;47.504;7.382;2023-05-25T02:32:24;97427.81;;;12.38;100.00
21817;BME280;13247;47.504;7.382;2023-05-25T02:35:09;97435.19;;;12.29;100.00
21817;BME280;13247;47.504;7.382;2023-05-25T02:37:54;97437.28;;;12.19;100.00
21817;BME280;13247;47.504;7.382;2023-05-25T02:40:38;97441.69;;;11.94;100.00
21817;BME280;13247;47.504;7.382;2023-05-25T02:43:23;97445.06;;;11.98;100.00
21817;BME280;13247;47.504;7.382;2023-05-25T02:46:07;97444.00;;;11.78;100.00
21817;BME280;13247;47.504;7.382;2023-05-25T02:48:52;97441.25;;;12.06;100.00
21817;BME280;13247;47.504;7.382;2023-05-25T02:51:37;97436.06;;;11.80;100.00
21817;BME280;13247;47.504;7.382;2023-05-25T02:54:21;97432.34;;;12.10;100.00
21817;BME280;13247;47.504;7.382;2023-05-25T02:57:06;97429.47;;;12.18;100.00
21817;BME280;13247;47.504;7.382;2023-05-25T02:59:51;97432.31;;;12.12;100.00
21817;BME280;13247;47.504;7.382;2023-05-25T03:02:36;97432.28;;;12.36;100.00
21817;BME280;13247;47.504;7.382;2023-05-25T03:05:21;97427.59;;;12.44;100.00
21817;BME280;13247;47.504;7.382;2023-05-25T03:08:06;97430.22;;;12.44;100.00
21817;BME280;13247;47.504;7.382;2023-05-25T03:10:50;97423.41;;;12.16;100.00
21817;BME280;13247;47.504;7.382;2023-05-25T03:13:35;97420.47;;;12.23;100.00
21817;BME280;13247;47.504;7.382;2023-05-25T03:16:19;97427.78;;;12.15;100.00
21817;BME280;13247;47.504;7.382;2023-05-25T03:19:06;97432.56;;;12.29;100.00
21817;BME280;13247;47.504;7.382;2023-05-25T03:21:52;97430.91;;;12.26;100.00
21817;BME280;13247;47.504;7.382;2023-05-25T03:24:36;97436.84;;;12.31;100.00
21817;BME280;13247;47.504;7.382;2023-05-25T03:27:24;97440.09;;;12.38;100.00
21817;BME280;13247;47.504;7.382;2023-05-25T03:30:09;97442.47;;;12.45;100.00
21817;BME280;13247;47.504;7.382;2023-05-25T03:32:54;97442.84;;;12.35;100.00
21817;BME280;13247;47.504;7.382;2023-05-25T03:35:39;97447.81;;;12.42;100.00
21817;BME280;13247;47.504;7.382;2023-05-25T03:38:24;97442.31;;;12.48;100.00
21817;BME280;13247;47.504;7.382;2023-05-25T03:41:08;97446.03;;;12.20;100.00
21817;BME280;13247;47.504;7.382;2023-05-25T03:43:53;97447.31;;;12.08;100.00
21817;BME280;13247;47.504;7.382;2023-05-25T03:46:38;97448.84;;;11.91;100.00
21817;BME280;13247;47.504;7.382;2023-05-25T03:49:23;97441.72;;;11.68;100.00
21817;BME280;13247;47.504;7.382;2023-05-25T03:52:07;97460.91;;;11.70;100.00
21817;BME280;13247;47.504;7.382;2023-05-25T03:54:52;97458.69;;;11.84;100.00
21817;BME280;13247;47.504;7.382;2023-05-25T03:57:36;97465.41;;;11.93;100.00
21817;BME280;13247;47.504;7.382;2023-05-25T04:00:21;97471.88;;;11.56;100.00
21817;BME280;13247;47.504;7.382;2023-05-25T04:03:05;97466.75;;;11.79;100.00
21817;BME280;13247;47.504;7.382;2023-05-25T04:05:50;97469.19;;;11.58;100.00
21817;BME280;13247;47.504;7.382;2023-05-25T04:08:34;97462.72;;;11.69;100.00
21817;BME280;13247;47.504;7.382;2023-05-25T04:11:19;97465.00;;;11.52;100.00
21817;BME280;13247;47.504;7.382;2023-05-25T04:14:06;97463.16;;;11.28;100.00
21817;BME280;13247;47.504;7.382;2023-05-25T04:16:50;97460.66;;;11.51;100.00
21817;BME280;13247;47.504;7.382;2023-05-25T04:19:35;97463.50;;;11.71;100.00
21817;BME280;13247;47.504;7.382;2023-05-25T04:22:20;97468.44;;;11.80;100.00
21817;BME280;13247;47.504;7.382;2023-05-25T04:25:08;97467.75;;;12.00;100.00
21817;BME280;13247;47.504;7.382;2023-05-25T04:27:54;97476.44;;;11.77;100.00
21817;BME280;13247;47.504;7.382;2023-05-25T04:30:39;97482.44;;;11.55;100.00
21817;BME280;13247;47.504;7.382;2023-05-25T04:33:25;97483.66;;;11.71;100.00
21817;BME280;13247;47.504;7.382;2023-05-25T04:36:13;97478.88;;;11.56;100.00
21817;BME280;13247;47.504;7.382;2023-05-25T04:38:57;97490.88;;;11.91;100.00
21817;BME280;13247;47.504;7.382;2023-05-25T04:41:46;97498.22;;;11.27;100.00
21817;BME280;13247;47.504;7.382;2023-05-25T04:44:32;97496.16;;;11.89;100.00
21817;BME280;13247;47.504;7.382;2023-05-25T04:47:17;97502.78;;;12.01;100.00
21817;BME280;13247;47.504;7.382;2023-05-25T04:50:03;97497.63;;;11.98;100.00
21817;BME280;13247;47.504;7.382;2023-05-25T04:52:47;97496.44;;;12.08;100.00
21817;BME280;13247;47.504;7.382;2023-05-25T04:55:32;97495.84;;;12.24;100.00
21817;BME280;13247;47.504;7.382;2023-05-25T04:58:16;97494.31;;;12.17;100.00
21817;BME280;13247;47.504;7.382;2023-05-25T05:01:02;97503.13;;;12.16;100.00
21817;BME280;13247;47.504;7.382;2023-05-25T05:03:46;97507.81;;;12.31;100.00
21817;BME280;13247;47.504;7.382;2023-05-25T05:06:31;97501.63;;;12.09;100.00
21817;BME280;13247;47.504;7.382;2023-05-25T05:09:15;97503.88;;;12.20;100.00
21817;BME280;13247;47.504;7.382;2023-05-25T05:12:00;97502.88;;;12.47;100.00
21817;BME280;13247;47.504;7.382;2023-05-25T05:14:46;97501.66;;;11.29;100.00
21817;BME280;13247;47.504;7.382;2023-05-25T05:17:30;97509.19;;;11.67;100.00
21817;BME280;13247;47.504;7.382;2023-05-25T05:20:16;97501.31;;;12.18;100.00
21817;BME280;13247;47.504;7.382;2023-05-25T05:23:00;97507.88;;;12.54;100.00
21817;BME280;13247;47.504;7.382;2023-05-25T05:25:45;97512.28;;;12.54;100.00
21817;BME280;13247;47.504;7.382;2023-05-25T05:28:29;97512.69;;;12.90;100.00
21817;BME280;13247;47.504;7.382;2023-05-25T05:31:14;97506.50;;;12.91;100.00
21817;BME280;13247;47.504;7.382;2023-05-25T05:34:00;97510.81;;;12.93;100.00
21817;BME280;13247;47.504;7.382;2023-05-25T05:36:45;97503.91;;;12.43;100.00
21817;BME280;13247;47.504;7.382;2023-05-25T05:39:29;97502.41;;;11.87;100.00
21817;BME280;13247;47.504;7.382;2023-05-25T05:42:15;97500.31;;;12.21;100.00
21817;BME280;13247;47.504;7.382;2023-05-25T05:45:00;97504.38;;;12.31;100.00
21817;BME280;13247;47.504;7.382;2023-05-25T05:47:44;97507.91;;;12.78;100.00
21817;BME280;13247;47.504;7.382;2023-05-25T05:50:29;97521.03;;;12.05;100.00
21817;BME280;13247;47.504;7.382;2023-05-25T05:53:14;97512.34;;;11.77;100.00
21817;BME280;13247;47.504;7.382;2023-05-25T05:55:59;97518.50;;;12.02;100.00
21817;BME280;13247;47.504;7.382;2023-05-25T05:58:44;97514.09;;;12.27;100.00
21817;BME280;13247;47.504;7.382;2023-05-25T06:01:30;97519.44;;;12.01;100.00
21817;BME280;13247;47.504;7.382;2023-05-25T06:04:17;97526.00;;;12.62;100.00
21817;BME280;13247;47.504;7.382;2023-05-25T06:07:02;97522.78;;;12.31;100.00
21817;BME280;13247;47.504;7.382;2023-05-25T06:09:46;97519.50;;;12.72;100.00
21817;BME280;13247;47.504;7.382;2023-05-25T06:12:31;97516.59;;;12.32;100.00
21817;BME280;13247;47.504;7.382;2023-05-25T06:15:16;97526.41;;;12.27;100.00
21817;BME280;13247;47.504;7.382;2023-05-25T06:18:00;97525.03;;;12.41;100.00
21817;BME280;13247;47.504;7.382;2023-05-25T06:20:45;97523.84;;;12.73;100.00
21817;BME280;13247;47.504;7.382;2023-05-25T06:23:29;97527.22;;;12.29;100.00
21817;BME280;13247;47.504;7.382;2023-05-25T06:26:14;97526.34;;;12.53;100.00
21817;BME280;13247;47.504;7.382;2023-05-25T06:28:58;97523.72;;;12.53;100.00
21817;BME280;13247;47.504;7.382;2023-05-25T06:31:43;97530.16;;;12.44;100.00
21817;BME280;13247;47.504;7.382;2023-05-25T06:34:28;97523.25;;;12.65;100.00
21817;BME280;13247;47.504;7.382;2023-05-25T06:37:14;97532.56;;;12.50;100.00
21817;BME280;13247;47.504;7.382;2023-05-25T06:40:00;97526.63;;;12.45;100.00
21817;BME280;13247;47.504;7.382;2023-05-25T06:42:45;97530.53;;;12.58;100.00
21817;BME280;13247;47.504;7.382;2023-05-25T06:45:30;97526.34;;;12.76;100.00
21817;BME280;13247;47.504;7.382;2023-05-25T06:48:14;97541.56;;;12.68;100.00
21817;BME280;13247;47.504;7.382;2023-05-25T06:50:59;97528.34;;;13.17;100.00
21817;BME280;13247;47.504;7.382;2023-05-25T06:53:44;97533.31;;;13.25;100.00
21817;BME280;13247;47.504;7.382;2023-05-25T06:56:29;97537.84;;;12.97;100.00
21817;BME280;13247;47.504;7.382;2023-05-25T06:59:15;97541.56;;;12.68;100.00
21817;BME280;13247;47.504;7.382;2023-05-25T07:02:00;97545.84;;;13.18;100.00
21817;BME280;13247;47.504;7.382;2023-05-25T07:04:44;97547.19;;;13.28;100.00
21817;BME280;13247;47.504;7.382;2023-05-25T07:07:30;97549.72;;;13.31;100.00
21817;BME280;13247;47.504;7.382;2023-05-25T07:10:15;97549.25;;;13.65;100.00
21817;BME280;13247;47.504;7.382;2023-05-25T07:13:00;97543.78;;;13.48;100.00
21817;BME280;13247;47.504;7.382;2023-05-25T07:15:45;97547.16;;;14.15;97.36
21817;BME280;13247;47.504;7.382;2023-05-25T07:18:30;97547.13;;;13.75;100.00
21817;BME280;13247;47.504;7.382;2023-05-25T07:21:15;97547.59;;;14.26;96.81
21817;BME280;13247;47.504;7.382;2023-05-25T07:24:01;97559.25;;;14.21;93.84
21817;BME280;13247;47.504;7.382;2023-05-25T07:26:46;97548.47;;;13.85;100.00
21817;BME280;13247;47.504;7.382;2023-05-25T07:29:31;97552.41;;;13.75;100.00
21817;BME280;13247;47.504;7.382;2023-05-25T07:32:16;97553.81;;;13.62;100.00
21817;BME280;13247;47.504;7.382;2023-05-25T07:35:00;97554.72;;;13.61;100.00
21817;BME280;13247;47.504;7.382;2023-05-25T07:37:45;97559.25;;;13.79;100.00
21817;BME280;13247;47.504;7.382;2023-05-25T07:40:29;97556.69;;;14.19;100.00
21817;BME280;13247;47.504;7.382;2023-05-25T07:43:14;97564.13;;;14.31;99.00
21817;BME280;13247;47.504;7.382;2023-05-25T07:45:59;97564.38;;;14.45;94.41
21817;BME280;13247;47.504;7.382;2023-05-25T07:48:45;97564.44;;;14.02;95.85
21817;BME280;13247;47.504;7.382;2023-05-25T07:51:30;97563.84;;;14.57;92.88
21817;BME280;13247;47.504;7.382;2023-05-25T07:54:16;97566.81;;;14.50;91.84
21817;BME280;13247;47.504;7.382;2023-05-25T07:57:01;97559.88;;;15.06;87.62
21817;BME280;13247;47.504;7.382;2023-05-25T07:59:46;97558.88;;;15.09;90.24
21817;BME280;13247;47.504;7.382;2023-05-25T08:02:31;97562.09;;;14.38;94.00
21817;BME280;13247;47.504;7.382;2023-05-25T08:05:15;97569.31;;;14.93;91.97
21817;BME280;13247;47.504;7.382;2023-05-25T08:08:00;97560.06;;;15.22;90.74
21817;BME280;13247;47.504;7.382;2023-05-25T08:10:45;97569.25;;;14.74;95.86
21817;BME280;13247;47.504;7.382;2023-05-25T08:13:29;97577.47;;;14.27;94.88
21817;BME280;13247;47.504;7.382;2023-05-25T08:16:14;97585.06;;;14.34;97.59
21817;BME280;13247;47.504;7.382;2023-05-25T08:18:59;97574.06;;;14.45;99.23
21817;BME280;13247;47.504;7.382;2023-05-25T08:21:44;97579.22;;;14.68;93.84
21817;BME280;13247;47.504;7.382;2023-05-25T08:24:29;97577.53;;;15.06;92.54
21817;BME280;13247;47.504;7.382;2023-05-25T08:27:14;97581.59;;;15.51;90.20
21817;BME280;13247;47.504;7.382;2023-05-25T08:29:59;97578.66;;;16.29;84.56
21817;BME280;13247;47.504;7.382;2023-05-25T08:32:45;97577.75;;;15.38;85.31
21817;BME280;13247;47.504;7.382;2023-05-25T08:35:29;97593.44;;;15.04;89.44
21817;BME280;13247;47.504;7.382;2023-05-25T08:38:14;97581.91;;;15.81;87.88
21817;BME280;13247;47.504;7.382;2023-05-25T08:41:03;97583.91;;;16.65;81.66
21817;BME280;13247;47.504;7.382;2023-05-25T08:43:49;97597.59;;;16.73;80.57
21817;BME280;13247;47.504;7.382;2023-05-25T08:46:34;97599.63;;;16.51;82.25
21817;BME280;13247;47.504;7.382;2023-05-25T08:49:20;97596.69;;;16.57;76.60
21817;BME280;13247;47.504;7.382;2023-05-25T08:52:12;97601.41;;;17.01;74.30
21817;BME280;13247;47.504;7.382;2023-05-25T08:55:02;97606.88;;;15.57;85.03
21817;BME280;13247;47.504;7.382;2023-05-25T08:57:53;97600.25;;;16.20;82.53
21817;BME280;13247;47.504;7.382;2023-05-25T09:00:43;97597.69;;;16.18;82.55
21817;BME280;13247;47.504;7.382;2023-05-25T09:03:32;97597.97;;;15.95;86.08
21817;BME280;13247;47.504;7.382;2023-05-25T09:06:18;97600.47;;;16.34;82.88
21817;BME280;13247;47.504;7.382;2023-05-25T09:09:04;97594.78;;;16.76;80.71
21817;BME280;13247;47.504;7.382;2023-05-25T09:11:49;97592.47;;;16.87;78.74
21817;BME280;13247;47.504;7.382;2023-05-25T09:14:34;97600.00;;;16.26;82.52
21817;BME280;13247;47.504;7.382;2023-05-25T09:17:21;97604.19;;;16.30;82.36
21817;BME280;13247;47.504;7.382;2023-05-25T09:20:07;97609.31;;;17.34;78.67
21817;BME280;13247;47.504;7.382;2023-05-25T09:22:52;97611.44;;;18.38;66.78
21817;BME280;13247;47.504;7.382;2023-05-25T09:25:37;97612.69;;;17.05;76.70
21817;BME280;13247;47.504;7.382;2023-05-25T09:28:24;97619.16;;;16.48;79.03
21817;BME280;13247;47.504;7.382;2023-05-25T09:31:09;97626.25;;;16.82;84.14
21817;BME280;13247;47.504;7.382;2023-05-25T09:33:54;97621.50;;;16.54;78.62
21817;BME280;13247;47.504;7.382;2023-05-25T09:36:43;97624.09;;;16.37;82.29
21817;BME280;13247;47.504;7.382;2023-05-25T09:39:28;97622.50;;;16.52;81.65
21817;BME280;13247;47.504;7.382;2023-05-25T09:42:15;97625.03;;;16.72;81.83
21817;BME280;13247;47.504;7.382;2023-05-25T09:45:00;97627.44;;;16.76;80.38
21817;BME280;13247;47.504;7.382;2023-05-25T09:47:45;97625.97;;;16.54;80.79
21817;BME280;13247;47.504;7.382;2023-05-25T09:50:30;97637.56;;;16.51;80.14
21817;BME280;13247;47.504;7.382;2023-05-25T09:53:16;97637.19;;;16.76;79.15
21817;BME280;13247;47.504;7.382;2023-05-25T09:56:00;97636.97;;;16.27;83.82
21817;BME280;13247;47.504;7.382;2023-05-25T09:58:45;97645.69;;;16.46;86.92
21817;BME280;13247;47.504;7.382;2023-05-25T10:01:32;97645.44;;;16.34;84.78
21817;BME280;13247;47.504;7.382;2023-05-25T10:04:16;97647.31;;;16.68;83.91
21817;BME280;13247;47.504;7.382;2023-05-25T10:07:04;97652.03;;;17.12;81.12
21817;BME280;13247;47.504;7.382;2023-05-25T10:09:50;97647.84;;;17.41;79.80
21817;BME280;13247;47.504;7.382;2023-05-25T10:12:37;97643.81;;;18.29;71.27
21817;BME280;13247;47.504;7.382;2023-05-25T10:15:25;97646.31;;;18.17;68.24
21817;BME280;13247;47.504;7.382;2023-05-25T10:18:13;97646.25;;;18.18;68.06
21817;BME280;13247;47.504;7.382;2023-05-25T10:21:03;97648.94;;;17.54;74.31
21817;BME280;13247;47.504;7.382;2023-05-25T10:23:51;97647.59;;;17.63;75.85
21817;BME280;13247;47.504;7.382;2023-05-25T10:26:41;97654.78;;;17.76;78.24
21817;BME280;13247;47.504;7.382;2023-05-25T10:29:30;97651.44;;;17.40;80.65
21817;BME280;13247;47.504;7.382;2023-05-25T10:32:17;97658.38;;;17.25;79.26
21817;BME280;13247;47.504;7.382;2023-05-25T10:35:03;97651.81;;;17.82;79.22
21817;BME280;13247;47.504;7.382;2023-05-25T10:37:51;97652.63;;;18.61;73.01
21817;BME280;13247;47.504;7.382;2023-05-25T10:40:37;97652.94;;;18.10;73.69
21817;BME280;13247;47.504;7.382;2023-05-25T10:43:23;97650.78;;;18.47;76.28
21817;BME280;13247;47.504;7.382;2023-05-25T10:46:07;97657.00;;;17.99;81.58
21817;BME280;13247;47.504;7.382;2023-05-25T10:48:53;97662.72;;;17.76;74.75
21817;BME280;13247;47.504;7.382;2023-05-25T10:51:57;97657.78;;;18.01;73.00
21817;BME280;13247;47.504;7.382;2023-05-25T10:54:43;97663.75;;;18.97;69.04
21817;BME280;13247;47.504;7.382;2023-05-25T10:57:28;97667.13;;;19.15;69.32
21817;BME280;13247;47.504;7.382;2023-05-25T11:00:14;97668.63;;;18.75;67.65
21817;BME280;13247;47.504;7.382;2023-05-25T11:02:59;97669.00;;;19.13;65.36
21817;BME280;13247;47.504;7.382;2023-05-25T11:05:49;97665.50;;;19.12;69.46
21817;BME280;13247;47.504;7.382;2023-05-25T11:08:54;97675.34;;;18.96;68.89
21817;BME280;13247;47.504;7.382;2023-05-25T11:14:27;97666.78;;;18.15;76.49
21817;BME280;13247;47.504;7.382;2023-05-25T11:17:16;97664.91;;;18.48;75.41
21817;BME280;13247;47.504;7.382;2023-05-25T11:20:01;97665.97;;;19.19;69.92
21817;BME280;13247;47.504;7.382;2023-05-25T11:22:50;97669.78;;;19.29;70.68
21817;BME280;13247;47.504;7.382;2023-05-25T11:25:38;97663.53;;;19.30;70.74
21817;BME280;13247;47.504;7.382;2023-05-25T11:28:23;97664.22;;;19.47;73.38
21817;BME280;13247;47.504;7.382;2023-05-25T11:31:07;97661.47;;;19.05;72.06
21817;BME280;13247;47.504;7.382;2023-05-25T11:33:57;97652.13;;;19.98;66.46
21817;BME280;13247;47.504;7.382;2023-05-25T11:36:42;97642.91;;;20.71;62.11
21817;BME280;13247;47.504;7.382;2023-05-25T11:39:27;97643.13;;;21.33;60.37
21817;BME280;13247;47.504;7.382;2023-05-25T11:42:14;97649.63;;;21.16;63.92
21817;BME280;13247;47.504;7.382;2023-05-25T11:45:03;97648.03;;;20.48;64.63
21817;BME280;13247;47.504;7.382;2023-05-25T11:47:48;97650.00;;;19.77;68.94
21817;BME280;13247;47.504;7.382;2023-05-25T11:50:33;97643.09;;;20.68;65.01
21817;BME280;13247;47.504;7.382;2023-05-25T11:53:18;97646.06;;;20.37;66.16
21817;BME280;13247;47.504;7.382;2023-05-25T11:56:02;97645.78;;;19.73;70.76
21817;BME280;13247;47.504;7.382;2023-05-25T11:58:48;97651.47;;;19.95;71.95
21817;BME280;13247;47.504;7.382;2023-05-25T12:01:33;97652.13;;;20.12;69.06
21817;BME280;13247;47.504;7.382;2023-05-25T12:04:18;97653.59;;;19.62;69.11
21817;BME280;13247;47.504;7.382;2023-05-25T12:07:06;97654.91;;;19.69;71.29
21817;BME280;13247;47.504;7.382;2023-05-25T12:09:51;97657.00;;;19.49;71.21
21817;BME280;13247;47.504;7.382;2023-05-25T12:12:48;97656.34;;;19.46;73.61
21817;BME280;13247;47.504;7.382;2023-05-25T12:15:34;97652.16;;;19.84;72.50
21817;BME280;13247;47.504;7.382;2023-05-25T12:18:19;97655.44;;;20.16;70.66
21817;BME280;13247;47.504;7.382;2023-05-25T12:21:04;97658.06;;;20.83;64.75
21817;BME280;13247;47.504;7.382;2023-05-25T12:23:53;97653.50;;;21.37;61.77
21817;BME280;13247;47.504;7.382;2023-05-25T12:26:51;97656.91;;;20.87;64.26
21817;BME280;13247;47.504;7.382;2023-05-25T12:29:46;97661.72;;;20.95;65.06
21817;BME280;13247;47.504;7.382;2023-05-25T12:32:32;97666.34;;;20.40;67.68
21817;BME280;13247;47.504;7.382;2023-05-25T12:35:17;97665.13;;;20.17;66.65
21817;BME280;13247;47.504;7.382;2023-05-25T12:38:12;97645.56;;;19.90;73.14
21817;BME280;13247;47.504;7.382;2023-05-25T12:41:05;97653.84;;;19.85;73.98
21817;BME280;13247;47.504;7.382;2023-05-25T12:43:50;97656.97;;;20.06;70.54
21817;BME280;13247;47.504;7.382;2023-05-25T12:46:35;97659.16;;;20.93;66.58
21817;BME280;13247;47.504;7.382;2023-05-25T12:52:11;97659.22;;;20.79;69.94
21817;BME280;13247;47.504;7.382;2023-05-25T12:55:33;97652.63;;;20.85;67.84
21817;BME280;13247;47.504;7.382;2023-05-25T12:58:27;97650.63;;;20.62;70.79
21817;BME280;13247;47.504;7.382;2023-05-25T13:01:12;97657.28;;;20.01;72.05
21817;BME280;13247;47.504;7.382;2023-05-25T13:03:56;97653.88;;;21.06;69.31
21817;BME280;13247;47.504;7.382;2023-05-25T13:06:41;97649.03;;;20.98;66.73
21817;BME280;13247;47.504;7.382;2023-05-25T13:09:25;97641.81;;;21.76;63.06
21817;BME280;13247;47.504;7.382;2023-05-25T13:12:10;97645.72;;;22.44;58.51
21817;BME280;13247;47.504;7.382;2023-05-25T13:14:56;97650.03;;;23.05;54.51
21817;BME280;13247;47.504;7.382;2023-05-25T13:17:41;97629.59;;;23.61;54.02
21817;BME280;13247;47.504;7.382;2023-05-25T13:20:27;97637.72;;;22.08;57.67
21817;BME280;13247;47.504;7.382;2023-05-25T13:23:16;97637.47;;;21.88;60.08
21817;BME280;13247;47.504;7.382;2023-05-25T13:26:00;97639.47;;;21.59;60.18
21817;BME280;13247;47.504;7.382;2023-05-25T13:28:45;97630.75;;;22.18;62.03
21817;BME280;13247;47.504;7.382;2023-05-25T13:31:30;97629.47;;;22.11;58.84
21817;BME280;13247;47.504;7.382;2023-05-25T13:34:15;97625.38;;;21.69;64.98
21817;BME280;13247;47.504;7.382;2023-05-25T13:36:59;97640.22;;;21.10;69.82
21817;BME280;13247;47.504;7.382;2023-05-25T13:39:44;97642.47;;;21.54;68.57
21817;BME280;13247;47.504;7.382;2023-05-25T13:42:28;97651.56;;;20.48;73.32
21817;BME280;13247;47.504;7.382;2023-05-25T13:45:13;97644.03;;;20.55;72.71
21817;BME280;13247;47.504;7.382;2023-05-25T13:47:57;97654.22;;;20.48;73.19
21817;BME280;13247;47.504;7.382;2023-05-25T13:50:42;97645.59;;;20.84;71.40
21817;BME280;13247;47.504;7.382;2023-05-25T13:53:28;97635.94;;;21.96;64.29
21817;BME280;13247;47.504;7.382;2023-05-25T13:56:13;97644.81;;;21.71;66.89
21817;BME280;13247;47.504;7.382;2023-05-25T13:58:58;97653.69;;;21.72;66.14
21817;BME280;13247;47.504;7.382;2023-05-25T14:01:42;97653.34;;;22.02;64.66
21817;BME280;13247;47.504;7.382;2023-05-25T14:04:27;97651.16;;;21.33;66.65
21817;BME280;13247;47.504;7.382;2023-05-25T14:07:11;97652.66;;;20.97;69.74
21817;BME280;13247;47.504;7.382;2023-05-25T14:09:57;97661.34;;;20.74;69.88
21817;BME280;13247;47.504;7.382;2023-05-25T14:12:42;97659.88;;;21.22;71.11
21817;BME280;13247;47.504;7.382;2023-05-25T14:15:27;97650.03;;;21.23;68.17
21817;BME280;13247;47.504;7.382;2023-05-25T14:18:12;97652.53;;;21.51;68.70
21817;BME280;13247;47.504;7.382;2023-05-25T14:20:57;97651.88;;;21.47;64.35
21817;BME280;13247;47.504;7.382;2023-05-25T14:23:42;97651.66;;;22.24;62.85
21817;BME280;13247;47.504;7.382;2023-05-25T14:26:27;97640.91;;;22.73;58.37
21817;BME280;13247;47.504;7.382;2023-05-25T14:29:12;97633.94;;;22.59;57.60
21817;BME280;13247;47.504;7.382;2023-05-25T14:31:56;97634.28;;;22.19;63.41
21817;BME280;13247;47.504;7.382;2023-05-25T14:34:41;97638.41;;;21.86;64.29
21817;BME280;13247;47.504;7.382;2023-05-25T14:37:26;97638.00;;;21.17;72.19
21817;BME280;13247;47.504;7.382;2023-05-25T14:40:11;97632.22;;;21.61;67.23